Airfield :
LOGIN :

Register | Disclaimer

   EN    FR    IT 

 










Legend :    VFR   Marginal VFR   IFR   Intensive IFR   Very Intensive IFR
Visi :
Ceiling :
>= 8 km
>= 3000ft
5 to 8 km
1000 to 3000 ft
1500m to 5 km
500 to 1000 ft
800 to 1500m
200 to 500 ft
< 800m
< 200 ft
Symbols :   Thunderstorms  Fog  Heavy snow  Heavy precipitations  Wind > 20 kt
SIGMETs :     Misc.  Thunderstorms  Icing  Turbulence  Mountain Waves  Volcanic Ashes






- Airport Elevation : 33 ft
- IATA code : MHZ


EGUN - RAF Mildenhall

CURRENT METAR :
  • 311756Z 25009KT 9999 BKN085 18/15 A2977 RMK AO2A SLP084 T01840149 10217 20182 50000 $

EXPIRED METARs :
  • 311656Z 25009KT 9999 FEW060 BKN080 19/16 A2977 RMK AO2A SLP084 T01850157 $
  • 311556Z 27011KT 9999 VCSH FEW035 SCT060 19/15 A2977 RMK AO2A SLP084 T01930147 $

TAF AMD TAF EGUN
Valid from the 31 at 16:00 until the 01 at 18:00 UTC


311640Z 3116/0118 28010G15KT 9999 VCSH SCT020 BKN060 QNH2974INS
TEMPO 3116/3118 8000 -SHRA BR BKN015
BECMG 3120/3121 26006KT 8000 BR SCT015 BKN030 QNH2976INS
TEMPO 0103/0108 6000 -DZ BR BKN010
BECMG 0107/0108 30012KT 9000 BR BKN010 OVC030 QNH2979INS
BECMG 0109/0110 31012KT 9999 NSW BKN015 QNH2981INS
BECMG 0112/0113 34012KT 9999 BKN030 QNH2981INS TX20/3116Z TN14/0103Z



MET'MAP, your aeronautical weather chart ! - Copyright ORBIFLY December 2007 - Disclaimer

ORBIFLY MET'MAP TEAM :

Programming & Development : Alexandra Zaïnal
Concept & original design : Baudouin d'Aumeries
Assistance for programming : Marc-Olivier Méhu
Technical & hardware support : Manuel Goepfert

Contact : metmap@orbifly.com




SOURCES & CREDITS :

   NOAA